Time;durP1;ratioP1;P1;durP2;ratioP2;P2;SDS_P1;SDS_P2;PMS_P1;PMS_P2;Temp;Humidity;BMP_temperature;BMP_pressure;BME280_temperature;BME280_humidity;BME280_pressure;Samples;Min_cycle;Max_cycle;Signal;HPM_P1;HPM_P2
2021/01/09 00:01:18;;;;;;;37.80;17.83;;;;;;;-0.62;100.00;97776.81;4961400;28;20057;-82
2021/01/09 00:04:34;;;;;;;37.47;16.63;;;;;;;-0.63;100.00;97783.97;4937509;29;20666;-82
2021/01/09 00:12:37;;;;;;;34.85;16.33;;;;;;;-0.65;100.00;97779.94;4937191;29;20510;-82
2021/01/09 00:37:52;;;;;;;;;;;;;;;;;;;;;
2021/01/09 00:54:41;;;;;;;;;;;;;;;;;;;;;
2021/01/09 01:08:57;;;;;;;42.03;18.15;;;;;;;-0.83;100.00;97783.63;5159874;23;20046;-78
2021/01/09 01:11:28;;;;;;;44.17;17.35;;;;;;;-0.74;100.00;97805.28;5009676;28;20134;-79
2021/01/09 01:13:56;;;;;;;40.92;18.67;;;;;;;-0.68;100.00;97814.97;5009811;28;20072;-78
2021/01/09 01:16:24;;;;;;;42.80;17.70;;;;;;;-0.70;100.00;97819.72;5010505;28;20056;-80
2021/01/09 01:18:56;;;;;;;41.42;18.75;;;;;;;-0.74;100.00;97813.25;5027846;28;20049;-80
2021/01/09 01:21:23;;;;;;;48.88;19.25;;;;;;;-0.73;100.00;97828.16;5012625;28;20049;-78
2021/01/09 01:23:49;;;;;;;49.58;20.65;;;;;;;-0.75;100.00;97825.72;5012463;28;20127;-80
2021/01/09 01:26:16;;;;;;;45.72;19.45;;;;;;;-0.76;100.00;97823.31;5014241;28;20401;-81
2021/01/09 01:28:42;;;;;;;45.08;19.55;;;;;;;-0.76;100.00;97823.31;5015921;28;20068;-80
2021/01/09 01:34:46;;;;;;;;;;;;;;;;;;;;;
2021/01/09 01:39:11;;;;;;;;;;;;;;;;;;;;;
2021/01/09 01:43:13;;;;;;;;;;;;;;;;;;;;;
2021/01/09 01:47:15;;;;;;;;;;;;;;;;;;;;;
2021/01/09 01:51:30;;;;;;;35.45;15.73;;;;;;;-1.57;100.00;97786.38;4944360;28;20043;-84
2021/01/09 01:55:35;;;;;;;;;;;;;;;;;;;;;
2021/01/09 01:59:12;;;;;;;39.03;16.48;;;;;;;-1.53;100.00;97792.84;4959257;28;20050;-80
2021/01/09 02:02:26;;;;;;;41.53;16.30;;;;;;;-1.10;100.00;97824.25;5011687;28;20065;-82
2021/01/09 02:05:57;;;;;;;45.25;17.63;;;;;;;-1.32;100.00;97808.16;4966376;28;20049;-84
2021/01/09 02:08:46;;;;;;;38.63;16.50;;;;;;;-1.55;100.00;97805.53;4976241;28;20147;-83
2021/01/09 02:11:35;;;;;;;42.47;16.90;;;;;;;-1.73;100.00;97813.66;5007859;28;20031;-82
2021/01/09 02:14:52;;;;;;;46.22;16.10;;;;;;;-1.62;100.00;97836.69;5015196;28;20027;-83
2021/01/09 02:17:43;;;;;;;40.65;16.30;;;;;;;-1.94;100.00;97785.84;4983575;28;20046;-81
2021/01/09 02:20:26;;;;;;;44.83;17.02;;;;;;;-1.36;100.00;97842.31;5029118;28;20148;-83
2021/01/09 02:23:11;;;;;;;44.10;17.63;;;;;;;-1.53;100.00;97788.34;5040396;28;20045;-83
2021/01/09 02:35:24;;;;;;;41.60;16.95;;;;;;;-1.18;100.00;97824.59;4940239;29;20062;-85
2021/01/09 02:43:36;;;;;;;;;;;;;;;;;;;;;
2021/01/09 02:50:42;;;;;;;30.75;14.55;;;;;;;-1.20;100.00;97830.16;4942339;29;20068;-85
2021/01/09 02:53:34;;;;;;;35.65;15.88;;;;;;;-1.22;100.00;97823.47;4929544;29;20123;-84
2021/01/09 02:59:58;;;;;;;32.25;14.98;;;;;;;-1.46;100.00;97783.72;4898815;29;20054;-84
2021/01/09 03:03:01;;;;;;;33.75;15.32;;;;;;;-1.08;100.00;97838.91;4910226;29;20047;-84
2021/01/09 03:05:44;;;;;;;35.58;15.80;;;;;;;-1.15;100.00;97827.63;4932965;28;20049;-83
2021/01/09 03:08:18;;;;;;;35.53;15.50;;;;;;;-1.27;100.00;97817.03;4946155;28;20057;-84
2021/01/09 03:10:56;;;;;;;39.50;15.68;;;;;;;-1.09;100.00;97847.94;4961413;28;20085;-85
2021/01/09 03:13:54;;;;;;;33.13;15.63;;;;;;;-1.40;100.00;97792.59;4967551;28;20049;-81
2021/01/09 03:16:21;;;;;;;29.88;14.57;;;;;;;-1.16;100.00;97833.94;5003429;28;20395;-82
2021/01/09 03:18:50;;;;;;;29.83;14.57;;;;;;;-1.28;100.00;97815.41;5031407;28;20029;-82
2021/01/09 03:21:19;;;;;;;33.60;14.60;;;;;;;-1.11;100.00;97847.34;5037270;28;20029;-82
2021/01/09 03:23:46;;;;;;;32.15;13.88;;;;;;;-1.17;100.00;97834.19;5022893;28;20021;-83
2021/01/09 03:26:30;;;;;;;;;;;;;;;;;;;;;
2021/01/09 03:29:00;;;;;;;31.25;14.43;;;;;;;-1.39;100.00;97784.38;5041080;28;20069;-83
2021/01/09 03:31:41;;;;;;;31.40;14.55;;;;;;;-0.97;100.00;97840.72;5025109;28;20034;-81
2021/01/09 03:34:28;;;;;;;29.08;13.57;;;;;;;-1.33;100.00;97788.75;5033393;28;20038;-83
2021/01/09 03:36:59;;;;;;;33.33;14.02;;;;;;;-1.30;100.00;97788.28;4987418;28;20050;-83
2021/01/09 03:39:52;;;;;;;31.20;13.23;;;;;;;-1.19;100.00;97809.72;4986265;28;20049;-85
2021/01/09 03:43:29;;;;;;;32.55;15.18;;;;;;;-0.94;100.00;97848.22;4985237;28;20037;-84
2021/01/09 03:46:16;;;;;;;31.30;14.43;;;;;;;-1.05;100.00;97819.03;4977770;28;20297;-83
2021/01/09 03:48:42;;;;;;;31.98;15.82;;;;;;;-1.08;100.00;97819.50;4999097;28;20624;-82
2021/01/09 03:51:09;;;;;;;32.63;15.68;;;;;;;-1.03;100.00;97815.09;4999108;28;20050;-84
2021/01/09 03:53:39;;;;;;;33.35;15.20;;;;;;;-1.06;100.00;97809.47;4950789;28;20077;-84
2021/01/09 03:56:06;;;;;;;35.38;16.80;;;;;;;-0.84;100.00;97831.66;4982034;28;20050;-86
2021/01/09 03:58:33;;;;;;;35.20;16.17;;;;;;;-0.98;100.00;97831.13;5005159;28;20032;-84
2021/01/09 04:01:04;;;;;;;36.17;17.08;;;;;;;-1.07;100.00;97802.53;5038504;28;20128;-84
2021/01/09 04:08:26;;;;;;;34.20;15.52;;;;;;;-0.82;100.00;97848.16;5018814;28;20615;-85
2021/01/09 04:34:34;;;;;;;32.65;14.68;;;;;;;-0.82;100.00;97835.69;5151746;23;20061;-84
2021/01/09 04:37:27;;;;;;;34.08;15.18;;;;;;;-1.14;100.00;97792.06;4948988;28;20066;-83
2021/01/09 04:40:14;;;;;;;35.53;15.38;;;;;;;-0.80;100.00;97844.22;4976326;28;20073;-83
2021/01/09 04:43:21;;;;;;;37.03;15.98;;;;;;;-0.98;100.00;97814.41;4864593;29;20060;-84
2021/01/09 04:46:23;;;;;;;;;;;;;;;;;;;;;
2021/01/09 04:49:13;;;;;;;35.80;16.65;;;;;;;-1.03;100.00;97822.28;4885195;29;20052;-82
2021/01/09 04:51:49;;;;;;;39.33;17.38;;;;;;;-0.98;100.00;97839.09;4880118;29;20067;-82
2021/01/09 04:54:39;;;;;;;31.77;14.88;;;;;;;-1.09;100.00;97812.59;4885740;29;20052;-81
2021/01/09 04:57:06;;;;;;;37.72;16.33;;;;;;;-0.87;100.00;97864.84;4886974;29;20048;-82
2021/01/09 04:59:54;;;;;;;38.25;17.05;;;;;;;-1.14;100.00;97820.47;4903991;29;20104;-82
2021/01/09 05:02:28;;;;;;;35.58;16.80;;;;;;;-0.93;100.00;97876.41;4915036;29;20040;-82
2021/01/09 05:05:06;;;;;;;35.00;15.85;;;;;;;-1.20;100.00;97822.19;4902565;29;20116;-82
2021/01/09 05:07:41;;;;;;;32.63;15.63;;;;;;;-1.13;100.00;97848.63;4888691;29;20044;-84
2021/01/09 05:10:48;;;;;;;37.15;16.65;;;;;;;-1.20;100.00;97843.44;4898957;29;20068;-82
2021/01/09 05:13:49;;;;;;;38.20;17.30;;;;;;;-1.05;100.00;97877.47;4931486;29;20092;-83
2021/01/09 05:16:37;;;;;;;34.00;15.80;;;;;;;-1.09;100.00;97868.38;4920110;29;20111;-82
2021/01/09 05:19:29;;;;;;;34.50;15.30;;;;;;;-1.34;100.00;97831.44;4911366;28;20052;-84
2021/01/09 05:22:22;;;;;;;37.08;16.42;;;;;;;-1.09;100.00;97873.69;4969779;28;20414;-83
2021/01/09 05:28:00;;;;;;;39.10;16.65;;;;;;;-1.09;100.00;97894.94;4996046;28;20046;-83
2021/01/09 05:30:40;;;;;;;35.67;15.55;;;;;;;-1.09;100.00;97897.59;4979597;28;20121;-83
2021/01/09 05:33:16;;;;;;;39.13;16.90;;;;;;;-1.33;100.00;97851.66;4979114;28;20034;-83
2021/01/09 05:36:11;;;;;;;37.72;15.93;;;;;;;-1.44;100.00;97836.56;4968806;28;20061;-84
2021/01/09 05:38:45;;;;;;;42.78;17.58;;;;;;;-1.19;100.00;97894.72;4979022;28;20050;-83
2021/01/09 05:41:34;;;;;;;41.15;17.63;;;;;;;-1.17;100.00;97898.75;4959517;28;20433;-84
2021/01/09 05:44:34;;;;;;;43.72;16.98;;;;;;;-1.30;100.00;97873.25;4986304;28;20057;-83
2021/01/09 05:47:30;;;;;;;38.42;17.23;;;;;;;-1.27;100.00;97875.47;5008643;28;20046;-83
2021/01/09 05:50:23;;;;;;;42.13;17.90;;;;;;;-1.10;100.00;97909.25;5003008;28;20093;-85
2021/01/09 05:53:00;;;;;;;42.25;18.50;;;;;;;-1.33;100.00;97868.41;4962748;28;20048;-82
2021/01/09 05:56:24;;;;;;;35.55;15.32;;;;;;;-1.07;100.00;97914.91;4965140;28;20149;-82
2021/01/09 05:58:55;;;;;;;38.60;16.10;;;;;;;-1.24;100.00;97895.44;4987392;28;20100;-83
2021/01/09 06:01:32;;;;;;;43.35;16.58;;;;;;;-1.24;100.00;97894.63;4998908;28;20061;-83
2021/01/09 06:04:20;;;;;;;41.85;17.77;;;;;;;-1.27;100.00;97883.41;5013919;28;20057;-82
2021/01/09 06:06:49;;;;;;;42.88;17.95;;;;;;;-1.11;100.00;97916.41;5016257;28;20050;-82
2021/01/09 06:09:25;;;;;;;45.75;17.75;;;;;;;-1.08;100.00;97912.47;5017540;28;20046;-83
2021/01/09 06:11:55;;;;;;;43.67;18.80;;;;;;;-1.12;100.00;97922.78;4999533;28;20961;-83
2021/01/09 06:14:27;;;;;;;39.20;16.13;;;;;;;-1.12;100.00;97917.44;4959489;28;20043;-84
2021/01/09 06:16:58;;;;;;;39.17;17.30;;;;;;;-1.26;100.00;97910.75;4966690;28;20494;-85
2021/01/09 06:20:08;;;;;;;38.63;16.65;;;;;;;-1.45;100.00;97872.13;4981737;28;20269;-85
2021/01/09 06:23:17;;;;;;;43.00;17.60;;;;;;;-1.11;100.00;97928.88;4982356;28;20133;-84
2021/01/09 06:26:17;;;;;;;;;;;;;;;-1.12;100.00;97921.94;4977465;28;20050;-84
2021/01/09 06:29:48;;;;;;;37.20;16.03;;;;;;;-1.45;100.00;97886.22;4982813;28;19926;-85
2021/01/09 06:32:39;;;;;;;37.55;15.43;;;;;;;-1.13;100.00;97936.25;4999206;28;20050;-83
2021/01/09 06:35:32;;;;;;;40.72;16.98;;;;;;;-1.14;100.00;97937.31;4989093;28;20072;-87
2021/01/09 06:39:04;;;;;;;38.40;16.05;;;;;;;-1.15;100.00;97931.19;4908490;29;20051;-85
2021/01/09 06:42:24;;;;;;;39.75;16.55;;;;;;;-1.54;100.00;97869.00;4904565;29;20233;-84
2021/01/09 06:45:41;;;;;;;41.90;16.77;;;;;;;-1.46;100.00;97899.69;4922134;29;20088;-86
2021/01/09 06:48:49;;;;;;;43.95;17.60;;;;;;;-1.49;100.00;97892.19;4900977;29;20048;-86
2021/01/09 06:53:07;;;;;;;41.47;17.08;;;;;;;-1.39;100.00;97900.38;4910270;29;20048;-85
2021/01/09 07:01:50;;;;;;;;;;;;;;;;;;;;;
2021/01/09 07:09:33;;;;;;;37.00;15.55;;;;;;;-1.10;100.00;97959.72;4754938;29;20599;-85
2021/01/09 07:12:03;;;;;;;39.15;16.35;;;;;;;-1.06;100.00;97959.03;4822427;29;20054;-85
2021/01/09 07:14:35;;;;;;;37.30;15.90;;;;;;;-1.09;100.00;97956.03;4857426;29;20072;-84
2021/01/09 07:17:02;;;;;;;35.35;15.57;;;;;;;-1.08;100.00;97961.09;4958761;28;20053;-84
2021/01/09 07:19:30;;;;;;;36.13;15.20;;;;;;;-1.07;100.00;97964.56;4947998;28;20050;-84
2021/01/09 07:31:24;;;;;;;32.83;14.95;;;;;;;-1.28;100.00;97940.22;4804974;29;20046;-83
2021/01/09 07:34:50;;;;;;;32.55;14.18;;;;;;;-1.07;100.00;97972.53;4973163;23;20220;-79
2021/01/09 07:37:16;;;;;;;33.40;15.20;;;;;;;-1.09;100.00;97974.63;5050043;28;20045;-79
2021/01/09 07:39:54;;;;;;;31.92;13.88;;;;;;;-1.07;100.00;97977.84;5050467;28;20045;-80
2021/01/09 07:42:24;;;;;;;33.63;15.18;;;;;;;-1.11;100.00;97982.00;5015137;28;20048;-80
2021/01/09 07:45:11;;;;;;;30.90;14.02;;;;;;;-1.08;100.00;97992.97;5047277;28;20045;-79
2021/01/09 07:47:41;;;;;;;34.22;15.70;;;;;;;-1.03;100.00;98000.25;5049278;28;20443;-80
2021/01/09 07:50:12;;;;;;;34.95;15.43;;;;;;;-1.11;100.00;97996.09;5054895;28;20064;-79
2021/01/09 07:52:41;;;;;;;36.42;16.15;;;;;;;-1.22;100.00;97974.84;5061420;28;20033;-79
2021/01/09 07:55:10;;;;;;;37.95;15.32;;;;;;;-1.08;100.00;97998.28;5059515;28;20045;-79
2021/01/09 07:57:39;;;;;;;35.95;15.35;;;;;;;-1.04;100.00;98004.75;5058670;28;20037;-80
2021/01/09 08:00:12;;;;;;;35.63;15.70;;;;;;;-1.08;100.00;98008.09;5053199;28;20042;-79
2021/01/09 08:02:40;;;;;;;33.38;14.70;;;;;;;-0.99;100.00;98012.84;5052403;28;20034;-76
2021/01/09 08:05:22;;;;;;;38.10;15.95;;;;;;;-0.98;100.00;98009.13;5064259;28;20029;-80
2021/01/09 08:07:52;;;;;;;33.90;15.00;;;;;;;-0.85;100.00;98018.75;5059148;28;20021;-78
2021/01/09 08:10:30;;;;;;;34.72;15.93;;;;;;;-0.90;100.00;98018.59;5028908;28;20052;-75
2021/01/09 08:13:15;;;;;;;37.00;15.50;;;;;;;-0.99;100.00;98014.69;5069659;28;20036;-76
2021/01/09 08:15:42;;;;;;;35.63;15.02;;;;;;;-0.92;100.00;98024.16;5034366;28;20071;-78
2021/01/09 08:18:09;;;;;;;28.83;14.63;;;;;;;-1.00;100.00;98021.03;5054592;28;20045;-80
2021/01/09 08:20:36;;;;;;;33.65;15.57;;;;;;;-1.02;100.00;98021.28;5059356;28;20018;-77
2021/01/09 08:23:04;;;;;;;32.08;15.35;;;;;;;-0.96;100.00;98040.81;5041360;28;20020;-84
2021/01/09 08:25:38;;;;;;;29.75;14.02;;;;;;;-1.00;100.00;98021.03;5058413;28;20106;-77
2021/01/09 08:28:07;;;;;;;36.85;15.02;;;;;;;-0.92;100.00;98032.13;5030828;28;20053;-76
2021/01/09 08:30:36;;;;;;;35.15;15.13;;;;;;;-0.94;100.00;98034.22;5044069;28;20642;-79
2021/01/09 08:33:04;;;;;;;29.02;14.40;;;;;;;-0.92;100.00;98039.28;5045870;28;20052;-77
2021/01/09 08:35:30;;;;;;;32.17;14.57;;;;;;;-0.99;100.00;98036.75;5031330;28;20249;-77
2021/01/09 08:37:57;;;;;;;32.33;14.18;;;;;;;-0.89;100.00;98033.50;5065225;28;20045;-76
2021/01/09 08:40:25;;;;;;;32.55;14.55;;;;;;;-0.86;100.00;98044.50;5067972;28;20049;-79
2021/01/09 08:42:58;;;;;;;32.88;13.77;;;;;;;-0.76;100.00;98041.25;5068637;28;20055;-76
2021/01/09 08:45:34;;;;;;;28.83;13.55;;;;;;;-0.73;100.00;98038.13;5066212;28;20180;-76
2021/01/09 08:48:02;;;;;;;30.02;13.10;;;;;;;-0.76;100.00;98044.72;5062399;28;20045;-76
2021/01/09 08:50:34;;;;;;;31.73;14.40;;;;;;;-0.78;100.00;98043.34;5049217;28;20416;-79
2021/01/09 08:53:05;;;;;;;28.90;13.82;;;;;;;-0.75;100.00;98040.22;5042774;28;20045;-79
2021/01/09 08:55:32;;;;;;;31.38;13.90;;;;;;;-0.61;100.00;98041.56;5028365;28;20048;-78
2021/01/09 08:58:00;;;;;;;32.50;15.07;;;;;;;-0.54;100.00;98047.56;5028873;28;20046;-77
2021/01/09 09:00:29;;;;;;;31.55;15.02;;;;;;;-0.52;100.00;98050.00;5050912;28;20051;-77
2021/01/09 09:02:57;;;;;;;31.90;14.18;;;;;;;-0.49;100.00;98039.69;5067138;28;20075;-78
2021/01/09 09:05:29;;;;;;;29.67;13.55;;;;;;;-0.43;100.00;98044.09;5024794;28;20053;-78
2021/01/09 09:07:57;;;;;;;32.13;15.18;;;;;;;-0.46;100.00;98047.22;5055420;28;20045;-77
2021/01/09 09:10:25;;;;;;;28.70;13.80;;;;;;;-0.50;100.00;98058.56;5038986;28;20128;-76
2021/01/09 09:12:51;;;;;;;30.55;13.73;;;;;;;-0.49;100.00;98060.19;5061262;28;20044;-77
2021/01/09 09:15:31;;;;;;;29.38;13.85;;;;;;;-0.45;100.00;98064.78;5056288;28;20055;-76
2021/01/09 09:17:57;;;;;;;29.40;13.68;;;;;;;-0.50;100.00;98058.56;5057826;28;20048;-76
2021/01/09 09:20:24;;;;;;;28.65;14.07;;;;;;;-0.53;100.00;98051.03;5041265;28;20048;-77
2021/01/09 09:22:52;;;;;;;30.85;13.45;;;;;;;-0.55;100.00;98064.56;5037698;28;20478;-77
2021/01/09 09:25:23;;;;;;;29.40;14.27;;;;;;;-0.57;100.00;98063.19;5039124;28;20048;-78
2021/01/09 09:27:50;;;;;;;31.58;14.07;;;;;;;-0.48;100.00;98059.94;5036767;28;20048;-76
2021/01/09 09:30:20;;;;;;;28.27;13.23;;;;;;;-0.51;100.00;98048.94;5049569;28;20041;-77
2021/01/09 09:32:46;;;;;;;29.77;13.45;;;;;;;-0.46;100.00;98065.81;5057066;28;20048;-76
2021/01/09 09:35:23;;;;;;;29.45;14.30;;;;;;;-0.45;100.00;98063.97;5054295;28;20060;-77
2021/01/09 09:37:51;;;;;;;28.02;13.85;;;;;;;-0.46;100.00;98072.97;5050267;28;20052;-75
2021/01/09 09:40:24;;;;;;;29.33;13.90;;;;;;;-0.50;100.00;98062.03;5050544;28;20053;-76
2021/01/09 09:42:54;;;;;;;31.02;13.63;;;;;;;-0.42;100.00;98066.16;5053290;28;20051;-77
2021/01/09 09:45:21;;;;;;;26.65;13.40;;;;;;;-0.46;100.00;98065.81;5055498;28;20099;-76
2021/01/09 09:47:49;;;;;;;30.35;14.35;;;;;;;-0.37;100.00;98058.31;5052481;28;20049;-76
2021/01/09 09:50:23;;;;;;;27.42;13.73;;;;;;;-0.43;100.00;98061.88;5017293;28;20104;-76
2021/01/09 09:53:00;;;;;;;26.90;14.13;;;;;;;-0.36;100.00;98062.59;5035140;28;20121;-75
2021/01/09 09:55:27;;;;;;;26.42;13.50;;;;;;;-0.41;100.00;98068.59;5034802;28;20140;-77
2021/01/09 09:58:27;;;;;;;27.38;13.98;;;;;;;-0.42;100.00;98072.31;5033561;28;20057;-77
2021/01/09 10:00:54;;;;;;;29.00;13.82;;;;;;;-0.41;100.00;98075.78;4987522;28;20096;-77
2021/01/09 10:03:21;;;;;;;28.20;13.88;;;;;;;-0.42;100.00;98077.63;5015715;28;20661;-76
2021/01/09 10:06:01;;;;;;;27.48;13.35;;;;;;;-0.44;100.00;98079.69;5014106;28;20073;-76
2021/01/09 10:08:27;;;;;;;29.00;14.00;;;;;;;-0.41;100.00;98084.53;5012916;28;20046;-76
2021/01/09 10:10:54;;;;;;;27.42;13.73;;;;;;;-0.35;100.00;98082.81;5012744;28;20624;-75
2021/01/09 10:13:24;;;;;;;31.40;14.38;;;;;;;-0.31;100.00;98090.06;5012954;28;20045;-76
2021/01/09 10:15:51;;;;;;;29.20;13.73;;;;;;;-0.35;100.00;98086.28;5013896;28;20046;-77
2021/01/09 10:18:17;;;;;;;27.63;14.05;;;;;;;-0.39;100.00;98071.84;4998784;28;20046;-76
2021/01/09 10:20:43;;;;;;;30.20;14.88;;;;;;;-0.28;100.00;98075.50;5019778;28;20052;-76
2021/01/09 10:23:09;;;;;;;30.17;14.60;;;;;;;-0.21;100.00;98079.66;5033606;28;20051;-77
2021/01/09 10:25:35;;;;;;;27.83;13.63;;;;;;;-0.13;100.00;98081.16;5033116;28;20052;-78
2021/01/09 10:28:02;;;;;;;26.75;14.05;;;;;;;-0.18;100.00;98073.06;5044371;28;20527;-78
2021/01/09 10:30:28;;;;;;;28.95;14.65;;;;;;;-0.10;100.00;98075.34;5040929;28;20450;-78
2021/01/09 10:32:57;;;;;;;26.77;13.77;;;;;;;0.00;100.00;98075.56;5046323;28;20688;-78
2021/01/09 10:35:24;;;;;;;28.50;14.30;;;;;;;-0.15;100.00;98064.59;5062396;28;20044;-81
2021/01/09 10:37:50;;;;;;;29.13;14.15;;;;;;;-0.15;100.00;98067.25;5067217;28;20075;-78
2021/01/09 10:40:19;;;;;;;28.90;14.23;;;;;;;-0.10;100.00;98059.38;5062278;28;20045;-80
2021/01/09 10:42:46;;;;;;;30.35;14.50;;;;;;;-0.02;100.00;98061.66;5053730;28;20052;-80
2021/01/09 10:45:13;;;;;;;28.73;14.57;;;;;;;-0.13;100.00;98065.97;5036319;28;20120;-79
2021/01/09 10:47:43;;;;;;;28.23;14.07;;;;;;;0.10;100.00;98065.13;5037657;28;20439;-79
2021/01/09 10:50:19;;;;;;;28.30;13.82;;;;;;;-0.06;100.00;98053.38;5040249;28;20089;-78
2021/01/09 10:52:46;;;;;;;29.88;14.70;;;;;;;-0.01;100.00;98058.78;5041443;28;20546;-78
2021/01/09 10:55:12;;;;;;;28.83;15.00;;;;;;;0.05;100.00;98062.34;5027760;28;20051;-80
2021/01/09 10:57:38;;;;;;;25.15;12.95;;;;;;;0.07;100.00;98064.75;5056704;28;20206;-79
2021/01/09 11:00:07;;;;;;;29.88;14.85;;;;;;;0.12;100.00;98064.88;5039461;28;20081;-79
2021/01/09 11:02:36;;;;;;;28.27;13.68;;;;;;;0.19;100.00;98054.88;5041435;28;20048;-80
2021/01/09 11:05:05;;;;;;;30.48;15.40;;;;;;;0.24;100.00;98065.63;5041464;28;20165;-79
2021/01/09 11:07:31;;;;;;;29.52;15.18;;;;;;;0.28;100.00;98061.44;5039773;23;20050;-80
2021/01/09 11:09:57;;;;;;;27.73;14.45;;;;;;;0.24;100.00;98060.28;4991894;28;20420;-80
2021/01/09 11:12:24;;;;;;;26.83;14.75;;;;;;;0.31;100.00;98059.09;4977574;28;20041;-81
2021/01/09 11:14:52;;;;;;;31.73;14.32;;;;;;;0.25;100.00;98062.72;5013817;28;20108;-80
2021/01/09 11:17:19;;;;;;;29.90;15.35;;;;;;;0.26;100.00;98069.66;5004759;28;20147;-80
2021/01/09 11:19:45;;;;;;;29.15;14.60;;;;;;;0.24;100.00;98069.09;4982137;28;20880;-82
2021/01/09 11:22:11;;;;;;;31.95;14.70;;;;;;;0.27;100.00;98063.28;4999129;28;20504;-82
2021/01/09 11:24:38;;;;;;;26.40;13.75;;;;;;;0.17;100.00;98063.09;5016644;28;20052;-81
2021/01/09 11:27:06;;;;;;;31.10;14.75;;;;;;;0.20;100.00;98059.97;5015020;28;20469;-81
2021/01/09 11:29:33;;;;;;;25.13;13.48;;;;;;;0.34;100.00;98066.63;5014424;28;20117;-82
2021/01/09 11:32:01;;;;;;;32.28;14.93;;;;;;;0.31;100.00;98069.75;4996705;28;20173;-82
2021/01/09 11:34:28;;;;;;;29.92;14.70;;;;;;;0.15;100.00;98064.41;4995861;28;20053;-81
2021/01/09 11:36:55;;;;;;;28.63;14.70;;;;;;;0.15;100.00;98072.38;4995463;28;20428;-81
2021/01/09 11:39:22;;;;;;;26.83;13.88;;;;;;;0.20;100.00;98067.97;5010005;28;20128;-81
2021/01/09 11:41:49;;;;;;;27.13;13.93;;;;;;;0.09;100.00;98057.34;4988107;28;20050;-80
2021/01/09 11:44:15;;;;;;;28.98;14.60;;;;;;;0.07;100.00;98064.75;5007637;28;20042;-81
2021/01/09 11:46:43;;;;;;;26.80;13.60;;;;;;;0.02;100.00;98067.34;5007948;28;20137;-81
2021/01/09 11:49:10;;;;;;;28.23;13.98;;;;;;;0.04;100.00;98063.38;4975406;28;20108;-81
2021/01/09 11:51:36;;;;;;;30.70;15.25;;;;;;;-0.04;100.00;98069.09;4993160;28;20076;-81
2021/01/09 11:54:03;;;;;;;29.38;14.60;;;;;;;-0.01;100.00;98079.25;4992008;28;20034;-81
2021/01/09 11:56:53;;;;;;;34.60;15.23;;;;;;;0.05;100.00;98080.97;4991276;28;20038;-81
2021/01/09 11:59:23;;;;;;;30.30;14.70;;;;;;;0.13;100.00;98069.94;4984744;28;20054;-81
2021/01/09 12:01:49;;;;;;;28.05;14.48;;;;;;;0.27;100.00;98076.59;4956800;28;20054;-81
2021/01/09 12:04:15;;;;;;;30.92;14.70;;;;;;;0.11;100.00;98077.34;4958925;28;20049;-82
2021/01/09 12:06:42;;;;;;;28.85;14.55;;;;;;;0.14;100.00;98074.22;4975275;28;20077;-82
2021/01/09 12:09:08;;;;;;;28.92;14.07;;;;;;;0.20;100.00;98083.94;4990261;28;20034;-81
2021/01/09 12:11:35;;;;;;;27.88;14.00;;;;;;;0.24;100.00;98073.59;4982107;28;20052;-81
2021/01/09 12:14:01;;;;;;;30.23;14.27;;;;;;;0.28;100.00;98077.41;4996838;28;20100;-81
2021/01/09 12:16:29;;;;;;;27.50;13.70;;;;;;;0.39;100.00;98082.69;4994706;28;20050;-81
2021/01/09 12:18:59;;;;;;;25.67;13.20;;;;;;;0.32;100.00;98075.88;4977367;28;20084;-81
2021/01/09 12:21:29;;;;;;;28.85;13.85;;;;;;;0.29;100.00;98082.50;5000523;28;20069;-82
2021/01/09 12:23:57;;;;;;;26.70;13.68;;;;;;;0.23;100.00;98072.81;4996006;28;20100;-81
2021/01/09 12:26:24;;;;;;;28.17;14.32;;;;;;;0.50;100.00;98059.69;4995737;28;20060;-81
2021/01/09 12:28:51;;;;;;;27.38;13.05;;;;;;;0.59;100.00;98075.03;4995220;28;20150;-81
2021/01/09 12:31:18;;;;;;;27.80;12.98;;;;;;;0.67;100.00;98057.88;4993965;28;20053;-80
2021/01/09 12:33:55;;;;;;;24.17;12.45;;;;;;;0.68;100.00;98066.66;5011651;28;20046;-81
2021/01/09 12:36:22;;;;;;;25.45;13.30;;;;;;;0.61;100.00;98072.16;4995050;28;20148;-80
2021/01/09 12:38:50;;;;;;;24.80;12.10;;;;;;;0.58;100.00;98065.47;5008164;28;20052;-81
2021/01/09 12:41:16;;;;;;;24.02;12.85;;;;;;;0.50;100.00;98073.84;4990210;28;20054;-80
2021/01/09 12:43:42;;;;;;;23.83;12.32;;;;;;;0.36;100.00;98075.16;5008505;28;20045;-81
2021/01/09 12:46:09;;;;;;;22.13;12.02;;;;;;;0.38;100.00;98077.59;5008411;28;20049;-81
2021/01/09 12:48:35;;;;;;;25.35;11.80;;;;;;;0.30;100.00;98086.78;4991409;28;20060;-81
2021/01/09 12:51:02;;;;;;;27.20;12.80;;;;;;;0.33;100.00;98077.50;5008986;28;20069;-81
2021/01/09 12:53:31;;;;;;;24.58;12.27;;;;;;;0.26;100.00;98076.84;4957594;28;20142;-81
2021/01/09 12:56:07;;;;;;;25.70;12.38;;;;;;;0.39;100.00;98080.03;4975360;28;20049;-81
2021/01/09 12:58:34;;;;;;;25.98;13.05;;;;;;;0.44;100.00;98081.97;4977585;28;20056;-81
2021/01/09 13:01:29;;;;;;;23.95;12.23;;;;;;;0.45;100.00;98083.59;4992843;28;20115;-82
2021/01/09 13:03:55;;;;;;;;;;;;;;;0.25;100.00;98092.00;4975299;28;20057;-81
2021/01/09 13:06:21;;;;;;;24.17;11.63;;;;;;;0.14;100.00;98084.88;5008691;28;19925;-80
2021/01/09 13:08:47;;;;;;;23.92;12.02;;;;;;;0.22;100.00;98089.00;5008331;28;20125;-78
2021/01/09 13:11:15;;;;;;;23.88;11.68;;;;;;;0.22;100.00;98091.66;5007764;28;20180;-80
2021/01/09 13:13:43;;;;;;;25.15;13.20;;;;;;;0.19;100.00;98090.28;5007121;28;20421;-81
2021/01/09 13:16:10;;;;;;;26.20;12.70;;;;;;;0.16;100.00;98084.63;4975438;28;20503;-81
2021/01/09 13:18:41;;;;;;;27.13;13.43;;;;;;;0.13;100.00;98096.56;4993603;28;20057;-81
2021/01/09 13:21:07;;;;;;;28.45;13.38;;;;;;;0.14;100.00;98095.53;5012085;28;20053;-81
2021/01/09 13:23:33;;;;;;;25.73;12.68;;;;;;;0.13;100.00;98103.75;4980066;28;20588;-83
2021/01/09 13:26:07;;;;;;;26.13;13.95;;;;;;;0.11;100.00;98111.16;5012607;28;20069;-83
2021/01/09 13:28:36;;;;;;;26.50;13.45;;;;;;;0.09;100.00;98106.06;4994927;28;20076;-82
2021/01/09 13:31:03;;;;;;;25.20;13.27;;;;;;;-0.02;100.00;98113.03;5011378;28;20080;-85
2021/01/09 13:33:30;;;;;;;26.38;13.70;;;;;;;-0.03;100.00;98115.94;5014962;28;20044;-82
2021/01/09 13:35:56;;;;;;;27.55;13.90;;;;;;;-0.07;100.00;98114.78;5012186;28;20046;-81
2021/01/09 13:38:23;;;;;;;25.60;12.88;;;;;;;-0.06;100.00;98114.56;4993026;28;20187;-82
2021/01/09 13:40:51;;;;;;;26.13;13.10;;;;;;;-0.20;100.00;98115.84;5014457;28;20069;-79
2021/01/09 13:43:19;;;;;;;29.30;13.80;;;;;;;-0.25;100.00;98131.72;4976879;28;20499;-83
2021/01/09 13:45:46;;;;;;;33.83;14.32;;;;;;;-0.19;100.00;98127.31;5011096;28;20054;-81
2021/01/09 13:48:12;;;;;;;26.88;13.88;;;;;;;-0.14;100.00;98136.22;5011057;28;20101;-78
2021/01/09 13:50:39;;;;;;;27.90;13.35;;;;;;;-0.16;100.00;98140.16;5011362;28;20050;-79
2021/01/09 13:53:06;;;;;;;28.27;14.27;;;;;;;-0.18;100.00;98136.91;5010534;28;20042;-81
2021/01/09 13:55:32;;;;;;;33.15;15.30;;;;;;;-0.12;100.00;98135.97;4993052;28;20501;-83
2021/01/09 13:57:59;;;;;;;33.10;15.70;;;;;;;-0.17;100.00;98135.84;5014412;28;20107;-81
2021/01/09 14:00:26;;;;;;;31.73;15.50;;;;;;;-0.21;100.00;98146.19;5027157;28;20116;-81
2021/01/09 14:02:53;;;;;;;32.05;15.35;;;;;;;-0.26;100.00;98148.69;5026997;28;20045;-81
2021/01/09 14:05:20;;;;;;;32.72;16.45;;;;;;;-0.31;100.00;98142.47;5011788;28;20057;-81
2021/01/09 14:07:47;;;;;;;32.55;16.38;;;;;;;-0.35;100.00;98144.78;5009644;28;20057;-81
2021/01/09 14:10:15;;;;;;;32.95;16.10;;;;;;;-0.39;100.00;98154.28;4993827;28;20115;-80
2021/01/09 14:12:42;;;;;;;38.63;16.65;;;;;;;-0.41;100.00;98156.34;5018251;28;20060;-81
2021/01/09 14:15:08;;;;;;;34.45;15.85;;;;;;;-0.31;100.00;98153.91;5027249;28;20515;-81
2021/01/09 14:17:36;;;;;;;35.95;17.52;;;;;;;-0.41;100.00;98159.00;4980420;28;20050;-82
2021/01/09 14:20:04;;;;;;;34.42;16.30;;;;;;;-0.37;100.00;98165.50;5027266;28;20127;-81
2021/01/09 14:22:31;;;;;;;37.60;17.35;;;;;;;-0.36;100.00;98167.09;4994575;28;20042;-81
2021/01/09 14:25:00;;;;;;;40.25;17.17;;;;;;;-0.33;100.00;98171.13;5010267;28;20149;-80
2021/01/09 14:27:26;;;;;;;37.58;16.65;;;;;;;-0.33;100.00;98169.31;4993568;28;20050;-80